createdAt,value
2022-09-06T00:01:24.737Z,6.68
2022-09-06T00:03:51.681Z,9.43
2022-09-06T00:06:20.100Z,9.77
2022-09-06T00:08:48.102Z,7.68
2022-09-06T00:11:16.167Z,8.07
2022-09-06T00:13:43.161Z,6.10
2022-09-06T00:16:13.077Z,6.60
2022-09-06T00:18:39.889Z,6.47
2022-09-06T00:21:16.517Z,7.95
2022-09-06T00:23:43.483Z,8.75
2022-09-06T00:26:10.440Z,6.68
2022-09-06T00:28:38.016Z,7.85
2022-09-06T00:31:16.779Z,6.60
2022-09-06T00:33:44.329Z,8.63
2022-09-06T00:36:12.417Z,11.25
2022-09-06T00:38:40.031Z,10.25
2022-09-06T00:41:08.483Z,8.73
2022-09-06T00:43:35.672Z,9.15
2022-09-06T00:46:03.899Z,7.95
2022-09-06T00:48:31.187Z,7.72
2022-09-06T00:51:02.470Z,7.25
2022-09-06T00:53:31.814Z,9.43
2022-09-06T00:55:59.254Z,7.28
2022-09-06T00:58:27.217Z,7.65
2022-09-06T01:00:54.202Z,7.45
2022-09-06T01:03:23.070Z,9.02
2022-09-06T01:06:01.316Z,7.60
2022-09-06T01:08:46.788Z,7.50
2022-09-06T01:11:34.502Z,9.18
2022-09-06T01:14:24.595Z,8.10
2022-09-06T01:17:11.648Z,7.43
2022-09-06T01:19:58.166Z,8.70
2022-09-06T01:22:46.166Z,9.25
2022-09-06T01:25:55.226Z,8.13
2022-09-06T01:28:40.047Z,6.60
2022-09-06T01:31:19.918Z,7.85
2022-09-06T01:34:05.311Z,8.68
2022-09-06T01:37:09.333Z,10.00
2022-09-06T01:39:38.931Z,9.30
2022-09-06T01:42:13.620Z,7.22
2022-09-06T01:44:44.706Z,8.45
2022-09-06T01:47:47.101Z,8.63
2022-09-06T01:50:35.428Z,9.10
2022-09-06T01:53:41.166Z,10.02
2022-09-06T01:56:11.477Z,9.88
2022-09-06T01:58:47.328Z,7.38
2022-09-06T02:01:39.374Z,6.97
2022-09-06T02:04:43.667Z,8.48
2022-09-06T02:07:20.815Z,7.25
2022-09-06T02:09:52.779Z,7.90
2022-09-06T02:12:24.117Z,7.65
2022-09-06T02:14:57.756Z,8.00
2022-09-06T02:17:30.683Z,7.43
2022-09-06T02:20:08.373Z,8.30
2022-09-06T02:22:41.445Z,6.80
2022-09-06T02:25:11.339Z,9.60
2022-09-06T02:27:38.159Z,10.88
2022-09-06T02:30:06.286Z,10.48
2022-09-06T02:32:39.213Z,9.77
2022-09-06T02:35:14.678Z,11.25
2022-09-06T02:37:43.562Z,8.90
2022-09-06T02:40:11.412Z,8.40
2022-09-06T02:42:39.608Z,8.63
2022-09-06T02:45:06.725Z,11.60
2022-09-06T02:47:33.594Z,7.10
2022-09-06T02:50:00.882Z,6.22
2022-09-06T02:52:27.667Z,6.93
2022-09-06T02:54:55.132Z,7.68
2022-09-06T02:57:21.914Z,6.30
2022-09-06T02:59:48.711Z,8.40
2022-09-06T03:02:15.824Z,7.47
2022-09-06T03:04:42.614Z,7.05
2022-09-06T03:07:09.350Z,7.55
2022-09-06T03:09:36.108Z,10.60
2022-09-06T03:12:03.115Z,9.25
2022-09-06T03:14:29.859Z,7.75
2022-09-06T03:16:56.911Z,9.50
2022-09-06T03:19:23.807Z,7.82
2022-09-06T03:21:50.537Z,10.73
2022-09-06T03:24:17.279Z,8.07
2022-09-06T03:26:44.367Z,9.02
2022-09-06T03:29:11.082Z,9.48
2022-09-06T03:31:37.898Z,8.48
2022-09-06T03:34:07.999Z,8.63
2022-09-06T03:36:37.163Z,12.98
2022-09-06T03:39:03.938Z,9.13
2022-09-06T03:41:30.677Z,7.18
2022-09-06T03:43:57.475Z,10.50
2022-09-06T03:46:24.264Z,11.55
2022-09-06T03:48:51.115Z,10.15
2022-09-06T03:51:17.965Z,8.02
2022-09-06T03:53:44.735Z,8.23
2022-09-06T03:56:11.472Z,8.20
2022-09-06T03:58:38.206Z,9.48
2022-09-06T04:01:10.012Z,7.75
2022-09-06T04:03:37.955Z,9.73
2022-09-06T04:06:05.994Z,9.25
2022-09-06T04:08:33.481Z,10.05
2022-09-06T04:11:00.582Z,8.27
2022-09-06T04:13:28.788Z,6.88
2022-09-06T04:15:55.993Z,8.00
2022-09-06T04:18:23.495Z,7.20
2022-09-06T04:20:52.480Z,8.00
2022-09-06T04:23:20.191Z,9.63
2022-09-06T04:25:52.661Z,13.07
2022-09-06T04:28:20.706Z,9.40
2022-09-06T04:31:03.910Z,13.43
2022-09-06T04:36:00.409Z,8.93
2022-09-06T04:38:29.709Z,9.85
2022-09-06T04:40:56.729Z,9.52
2022-09-06T04:43:23.974Z,12.38
2022-09-06T04:45:50.965Z,9.80
2022-09-06T04:48:17.851Z,10.45
2022-09-06T04:50:44.874Z,12.55
2022-09-06T04:53:11.734Z,8.73
2022-09-06T04:55:38.664Z,7.97
2022-09-06T04:58:06.401Z,8.20
2022-09-06T05:00:34.740Z,8.05
2022-09-06T05:03:01.514Z,10.38
2022-09-06T05:05:28.283Z,8.70
2022-09-06T05:07:55.541Z,10.23
2022-09-06T05:10:23.261Z,9.05
2022-09-06T05:12:51.902Z,12.60
2022-09-06T05:15:19.938Z,9.25
2022-09-06T05:17:47.099Z,9.85
2022-09-06T05:20:14.128Z,8.93
2022-09-06T05:22:41.573Z,7.75
2022-09-06T05:25:09.279Z,12.35
2022-09-06T05:27:36.586Z,9.70
2022-09-06T05:30:04.610Z,9.65
2022-09-06T05:32:31.483Z,12.25
2022-09-06T05:34:58.248Z,9.77
2022-09-06T05:37:25.185Z,10.65
2022-09-06T05:39:52.030Z,10.98
2022-09-06T05:42:19.512Z,11.13
2022-09-06T05:44:46.419Z,10.68
2022-09-06T05:47:13.587Z,9.18
2022-09-06T05:49:40.546Z,8.65
2022-09-06T05:52:07.323Z,12.95
2022-09-06T05:54:34.166Z,10.75
2022-09-06T05:57:00.908Z,12.57
2022-09-06T05:59:27.645Z,11.43
2022-09-06T06:01:54.639Z,12.02
2022-09-06T06:04:22.438Z,15.15
2022-09-06T06:06:49.370Z,11.85
2022-09-06T06:09:16.720Z,12.48
2022-09-06T06:11:43.693Z,12.45
2022-09-06T06:14:10.901Z,12.73
2022-09-06T06:16:38.052Z,11.90
2022-09-06T06:19:05.093Z,12.07
2022-09-06T06:21:33.672Z,12.48
2022-09-06T06:24:02.802Z,12.68
2022-09-06T06:26:34.982Z,11.45
2022-09-06T06:29:02.408Z,10.95
2022-09-06T06:31:30.903Z,12.15
2022-09-06T06:33:59.311Z,13.63
2022-09-06T06:36:27.328Z,11.43
2022-09-06T06:38:55.425Z,13.07
2022-09-06T06:41:27.633Z,14.07
2022-09-06T06:43:56.021Z,15.35
2022-09-06T06:46:25.356Z,12.90
2022-09-06T06:48:54.908Z,11.15
2022-09-06T06:51:24.307Z,11.20
2022-09-06T06:53:51.568Z,12.82
2022-09-06T06:56:27.108Z,12.63
2022-09-06T06:58:57.408Z,15.25
2022-09-06T07:01:26.228Z,10.98
2022-09-06T07:03:53.314Z,14.88
2022-09-06T07:06:21.194Z,13.85
2022-09-06T07:08:49.210Z,12.52
2022-09-06T07:11:20.463Z,14.20
2022-09-06T07:13:49.965Z,14.35
2022-09-06T07:16:20.600Z,13.80
2022-09-06T07:18:51.700Z,11.98
2022-09-06T07:21:37.105Z,12.93
2022-09-06T07:24:08.539Z,11.85
2022-09-06T07:26:38.522Z,11.98
2022-09-06T07:29:06.976Z,12.88
2022-09-06T07:34:22.033Z,22.15
2022-09-06T07:36:51.605Z,11.98
2022-09-06T07:39:18.402Z,13.48
2022-09-06T07:41:45.152Z,15.60
2022-09-06T07:44:11.958Z,15.00
2022-09-06T07:46:39.287Z,10.27
2022-09-06T07:49:06.486Z,9.82
2022-09-06T07:51:33.489Z,12.82
2022-09-06T07:54:34.655Z,11.20
2022-09-06T07:56:47.727Z,8.40
2022-09-06T07:59:14.688Z,11.80
2022-09-06T08:01:41.980Z,9.38
2022-09-06T08:04:14.003Z,9.52
2022-09-06T08:09:31.456Z,7.88
2022-09-06T08:11:58.321Z,10.68
2022-09-06T08:14:25.147Z,8.05
2022-09-06T08:16:53.507Z,7.65
2022-09-06T08:19:20.706Z,13.88
2022-09-06T08:21:48.200Z,10.52
2022-09-06T08:24:14.991Z,8.30
2022-09-06T08:26:44.774Z,7.63
2022-09-06T08:29:12.981Z,12.45
2022-09-06T08:31:42.869Z,6.85
2022-09-06T08:34:12.616Z,9.85
2022-09-06T08:36:41.430Z,10.55
2022-09-06T08:39:10.429Z,9.25
2022-09-06T08:41:58.674Z,7.85
2022-09-06T08:47:21.831Z,5.95
2022-09-06T08:50:01.307Z,7.07
2022-09-06T08:52:54.359Z,8.98
2022-09-06T08:55:44.550Z,7.35
2022-09-06T08:58:14.718Z,5.72
2022-09-06T09:00:48.347Z,6.28
2022-09-06T09:03:21.564Z,6.93
2022-09-06T09:05:52.785Z,5.38
2022-09-06T09:08:25.929Z,5.88
2022-09-06T09:11:19.775Z,5.45
2022-09-06T09:13:46.849Z,5.65
2022-09-06T09:16:14.980Z,5.47
2022-09-06T09:18:49.147Z,8.93
2022-09-06T09:21:21.075Z,5.30
2022-09-06T09:23:56.535Z,7.32
2022-09-06T09:26:26.765Z,6.45
2022-09-06T09:29:12.736Z,5.22
2022-09-06T09:31:40.833Z,7.10
2022-09-06T09:34:13.284Z,6.38
2022-09-06T09:36:40.863Z,4.80
2022-09-06T09:39:12.084Z,4.85
2022-09-06T09:41:42.984Z,5.07
2022-09-06T09:44:19.984Z,6.88
2022-09-06T09:46:46.875Z,5.25
2022-09-06T09:49:34.943Z,6.22
2022-09-06T09:52:06.127Z,5.68
2022-09-06T09:54:37.424Z,5.72
2022-09-06T09:57:14.496Z,6.30
2022-09-06T10:00:01.043Z,5.68
2022-09-06T10:02:31.723Z,5.20
2022-09-06T10:05:28.066Z,6.20
2022-09-06T10:07:56.709Z,6.18
2022-09-06T10:10:28.131Z,6.57
2022-09-06T10:13:14.386Z,5.20
2022-09-06T10:15:41.725Z,4.93
2022-09-06T10:18:21.478Z,6.00
2022-09-06T10:20:56.648Z,4.72
2022-09-06T10:26:42.071Z,5.10
2022-09-06T10:29:12.967Z,4.72
2022-09-06T10:31:39.839Z,5.05
2022-09-06T10:34:15.571Z,6.00
2022-09-06T10:37:01.546Z,5.07
2022-09-06T10:39:43.713Z,8.40
2022-09-06T10:42:31.376Z,6.13
2022-09-06T10:45:06.832Z,5.70
2022-09-06T10:48:02.801Z,6.95
2022-09-06T10:50:54.917Z,6.10
2022-09-06T10:53:21.616Z,5.07
2022-09-06T10:56:01.391Z,5.45
2022-09-06T11:02:22.521Z,6.70
2022-09-06T11:10:41.945Z,5.43
2022-09-06T11:13:19.661Z,5.10
2022-09-06T11:15:52.046Z,4.95
2022-09-06T11:18:40.176Z,7.53
2022-09-06T11:21:45.062Z,8.05
2022-09-06T11:24:23.889Z,7.10
2022-09-06T11:26:56.450Z,5.00
2022-09-06T11:29:26.282Z,8.30
2022-09-06T11:32:20.335Z,7.93
2022-09-06T11:34:56.755Z,9.13
2022-09-06T11:37:33.343Z,5.50
2022-09-06T11:40:26.656Z,7.55
2022-09-06T11:42:54.671Z,5.50
2022-09-06T11:45:43.454Z,6.55
2022-09-06T11:48:33.909Z,6.53
2022-09-06T11:51:06.725Z,4.82
2022-09-06T11:53:48.824Z,5.47
2022-09-06T11:56:34.439Z,5.47
2022-09-06T11:59:18.679Z,5.63
2022-09-06T12:02:00.945Z,7.43
2022-09-06T12:05:00.368Z,4.35
2022-09-06T12:07:32.191Z,4.95
2022-09-06T12:10:22.832Z,6.32
2022-09-06T12:12:52.518Z,3.72
2022-09-06T12:15:31.088Z,4.88
2022-09-06T12:17:59.582Z,5.18
2022-09-06T12:20:47.836Z,5.88
2022-09-06T12:23:36.332Z,6.20
2022-09-06T12:26:08.127Z,4.18
2022-09-06T12:28:46.875Z,3.97
2022-09-06T12:31:27.526Z,5.72
2022-09-06T12:33:56.115Z,4.95
2022-09-06T12:36:29.694Z,7.85
2022-09-06T12:39:08.332Z,6.55
2022-09-06T12:41:47.203Z,6.18
2022-09-06T12:44:15.796Z,5.10
2022-09-06T12:46:50.982Z,5.45
2022-09-06T12:49:23.445Z,4.30
2022-09-06T12:51:50.399Z,5.47
2022-09-06T12:54:21.859Z,6.47
2022-09-06T12:56:48.758Z,7.45
2022-09-06T12:59:24.985Z,5.70
2022-09-06T13:02:10.395Z,5.35
2022-09-06T13:04:52.040Z,4.95
2022-09-06T13:07:22.467Z,5.43
2022-09-06T13:09:52.521Z,5.13
2022-09-06T13:12:27.542Z,6.75
2022-09-06T13:14:56.578Z,4.72
2022-09-06T13:17:29.407Z,4.78
2022-09-06T13:22:45.909Z,4.40
2022-09-06T13:25:19.874Z,6.50
2022-09-06T13:27:50.891Z,4.90
2022-09-06T13:30:39.118Z,6.50
2022-09-06T13:33:07.411Z,4.45
2022-09-06T13:35:38.180Z,3.90
2022-09-06T13:38:21.681Z,6.55
2022-09-06T13:41:11.670Z,5.53
2022-09-06T13:43:46.042Z,5.93
2022-09-06T13:46:13.594Z,6.38
2022-09-06T13:48:41.538Z,5.25
2022-09-06T13:51:09.852Z,9.50
2022-09-06T13:53:36.703Z,4.57
2022-09-06T13:56:03.748Z,10.18
2022-09-06T13:58:30.636Z,4.40
2022-09-06T14:00:58.949Z,5.85
2022-09-06T14:03:31.134Z,6.90
2022-09-06T14:06:00.154Z,3.80
2022-09-06T14:08:43.433Z,5.63
2022-09-06T14:11:15.483Z,7.57
2022-09-06T14:13:42.278Z,7.95
2022-09-06T14:16:09.103Z,6.63
2022-09-06T14:18:36.298Z,6.00
2022-09-06T14:21:03.183Z,5.35
2022-09-06T14:23:29.961Z,7.32
2022-09-06T14:26:00.838Z,5.22
2022-09-06T14:28:28.559Z,6.75
2022-09-06T14:30:55.433Z,5.80
2022-09-06T14:33:22.212Z,6.88
2022-09-06T14:35:49.602Z,7.43
2022-09-06T14:38:16.361Z,6.22
2022-09-06T14:40:45.799Z,4.35
2022-09-06T14:43:12.633Z,7.43
2022-09-06T14:45:39.761Z,10.73
2022-09-06T14:48:07.089Z,5.50
2022-09-06T14:50:34.346Z,9.80
2022-09-06T14:53:01.153Z,5.72
2022-09-06T14:55:28.082Z,5.03
2022-09-06T14:57:55.257Z,6.43
2022-09-06T15:00:22.682Z,4.68
2022-09-06T15:02:49.582Z,7.05
2022-09-06T15:05:16.454Z,7.80
2022-09-06T15:07:43.313Z,5.57
2022-09-06T15:10:10.839Z,6.32
2022-09-06T15:12:38.120Z,8.40
2022-09-06T15:15:05.661Z,7.45
2022-09-06T15:17:34.214Z,6.70
2022-09-06T15:20:01.104Z,8.80
2022-09-06T15:22:27.939Z,7.38
2022-09-06T15:24:55.502Z,5.13
2022-09-06T15:27:22.917Z,7.03
2022-09-06T15:29:49.797Z,10.80
2022-09-06T15:32:16.588Z,5.40
2022-09-06T15:34:43.378Z,6.80
2022-09-06T15:37:10.394Z,8.35
2022-09-06T15:39:37.227Z,7.53
2022-09-06T15:42:04.258Z,6.95
2022-09-06T15:44:31.008Z,6.07
2022-09-06T15:46:59.123Z,7.90
2022-09-06T15:49:28.923Z,4.85
2022-09-06T15:51:57.369Z,8.13
2022-09-06T15:54:44.258Z,6.03
2022-09-06T15:57:11.253Z,6.43
2022-09-06T15:59:40.694Z,8.80
2022-09-06T16:02:08.137Z,6.18
2022-09-06T16:04:35.028Z,5.85
2022-09-06T16:07:01.774Z,6.80
2022-09-06T16:09:29.231Z,5.32
2022-09-06T16:11:55.983Z,7.55
2022-09-06T16:14:23.447Z,7.97
2022-09-06T16:16:53.836Z,5.15
2022-09-06T16:19:20.806Z,5.60
2022-09-06T16:21:47.589Z,10.00
2022-09-06T16:24:15.109Z,7.30
2022-09-06T16:26:44.369Z,6.70
2022-09-06T16:29:13.165Z,8.48
2022-09-06T16:31:40.992Z,5.50
2022-09-06T16:34:09.820Z,6.90
2022-09-06T16:36:37.125Z,6.35
2022-09-06T16:39:04.445Z,5.55
2022-09-06T16:41:40.321Z,8.40
2022-09-06T16:44:09.702Z,7.57
2022-09-06T16:46:36.572Z,6.55
2022-09-06T16:49:04.689Z,5.75
2022-09-06T16:51:31.803Z,4.90
2022-09-06T16:53:59.609Z,5.10
2022-09-06T16:56:29.171Z,8.38
2022-09-06T16:58:58.527Z,5.15
2022-09-06T17:01:27.411Z,7.35
2022-09-06T17:03:54.503Z,5.53
2022-09-06T17:06:22.890Z,6.88
2022-09-06T17:08:50.868Z,7.75
2022-09-06T17:11:20.258Z,7.90
2022-09-06T17:13:50.376Z,9.07
2022-09-06T17:16:37.153Z,8.88
2022-09-06T17:19:05.352Z,7.07
2022-09-06T17:21:32.846Z,8.20
2022-09-06T17:24:02.923Z,7.70
2022-09-06T17:26:30.169Z,9.52
2022-09-06T17:28:57.013Z,6.80
2022-09-06T17:31:25.926Z,6.93
2022-09-06T17:33:53.803Z,8.18
2022-09-06T17:36:23.695Z,6.75
2022-09-06T17:38:53.695Z,9.38
2022-09-06T17:41:24.216Z,9.30
2022-09-06T17:43:53.673Z,8.00
2022-09-06T17:46:28.657Z,8.27
2022-09-06T17:48:56.349Z,8.57
2022-09-06T17:51:24.336Z,8.25
2022-09-06T17:53:52.345Z,6.50
2022-09-06T17:56:19.995Z,7.38
2022-09-06T17:58:59.321Z,8.10
2022-09-06T18:01:32.298Z,8.27
2022-09-06T18:03:59.830Z,9.48
2022-09-06T18:06:28.226Z,9.68
2022-09-06T18:08:56.413Z,7.53
2022-09-06T18:11:26.315Z,9.48
2022-09-06T18:14:03.017Z,8.32
2022-09-06T18:16:31.709Z,7.30
2022-09-06T18:19:01.019Z,14.07
2022-09-06T18:21:29.950Z,8.43
2022-09-06T18:23:57.044Z,6.75
2022-09-06T18:26:24.850Z,6.70
2022-09-06T18:28:53.451Z,6.50
2022-09-06T18:31:22.784Z,11.23
2022-09-06T18:33:49.825Z,8.63
2022-09-06T18:36:17.677Z,9.75
2022-09-06T18:38:45.006Z,11.98
2022-09-06T18:41:33.979Z,7.00
2022-09-06T18:44:02.860Z,8.38
2022-09-06T18:46:31.486Z,7.88
2022-09-06T18:48:58.754Z,11.18
2022-09-06T18:51:26.014Z,10.73
2022-09-06T18:53:53.284Z,10.68
2022-09-06T18:56:27.153Z,10.40
2022-09-06T18:58:58.809Z,13.73
2022-09-06T19:01:32.085Z,11.40
2022-09-06T19:06:33.222Z,11.55
2022-09-06T19:09:08.054Z,8.32
2022-09-06T19:11:35.293Z,8.00
2022-09-06T19:14:02.924Z,8.75
2022-09-06T19:16:37.551Z,12.13
2022-09-06T19:19:12.733Z,8.52
2022-09-06T19:21:42.863Z,8.05
2022-09-06T19:24:12.514Z,9.25
2022-09-06T19:26:45.123Z,14.80
2022-09-06T19:29:15.478Z,11.23
2022-09-06T19:31:43.233Z,9.45
2022-09-06T19:34:18.425Z,9.70
2022-09-06T19:36:46.511Z,10.68
2022-09-06T19:39:15.667Z,8.73
2022-09-06T19:41:45.142Z,8.13
2022-09-06T19:44:12.534Z,7.55
2022-09-06T19:46:45.445Z,7.82
2022-09-06T19:49:17.665Z,9.48
2022-09-06T19:51:46.243Z,7.45
2022-09-06T19:54:13.024Z,8.73
2022-09-06T19:56:39.905Z,7.00
2022-09-06T19:59:09.981Z,8.98
2022-09-06T20:01:38.754Z,6.82
2022-09-06T20:04:08.681Z,8.75
2022-09-06T20:06:36.463Z,11.02
2022-09-06T20:09:06.406Z,7.22
2022-09-06T20:11:34.869Z,7.90
2022-09-06T20:14:02.213Z,7.07
2022-09-06T20:16:30.392Z,5.78
2022-09-06T20:19:01.480Z,9.52
2022-09-06T20:21:29.395Z,8.52
2022-09-06T20:23:59.155Z,6.93
2022-09-06T20:26:28.718Z,8.73
2022-09-06T20:29:00.705Z,8.85
2022-09-06T20:31:29.074Z,8.23
2022-09-06T20:33:56.407Z,9.57
2022-09-06T20:36:23.336Z,7.55
2022-09-06T20:38:50.835Z,5.65
2022-09-06T20:41:19.766Z,6.70
2022-09-06T20:43:51.402Z,9.73
2022-09-06T20:46:19.983Z,9.20
2022-09-06T20:48:47.596Z,9.02
2022-09-06T20:51:19.037Z,7.18
2022-09-06T20:53:48.236Z,7.25
2022-09-06T20:56:18.202Z,8.80
2022-09-06T20:58:53.915Z,7.07
2022-09-06T21:01:23.860Z,7.15
2022-09-06T21:03:55.045Z,9.27
2022-09-06T21:06:22.634Z,8.60
2022-09-06T21:08:50.159Z,6.97
2022-09-06T21:11:17.784Z,9.88
2022-09-06T21:13:48.212Z,7.53
2022-09-06T21:16:15.069Z,8.30
2022-09-06T21:18:41.882Z,9.30
2022-09-06T21:21:09.448Z,8.55
2022-09-06T21:23:37.986Z,7.05
2022-09-06T21:26:11.358Z,8.77
2022-09-06T21:28:40.077Z,7.82
2022-09-06T21:31:22.175Z,9.13
2022-09-06T21:33:54.942Z,9.50
2022-09-06T21:36:30.342Z,9.57
2022-09-06T21:39:07.599Z,10.13
2022-09-06T21:41:35.021Z,8.65
2022-09-06T21:44:03.203Z,9.32
2022-09-06T21:46:33.587Z,7.88
2022-09-06T21:49:03.953Z,8.63
2022-09-06T21:51:32.332Z,9.57
2022-09-06T21:53:59.682Z,12.57
2022-09-06T21:56:26.510Z,8.73
2022-09-06T21:58:57.619Z,9.20
2022-09-06T22:01:26.756Z,6.75
2022-09-06T22:03:53.747Z,8.85
2022-09-06T22:06:23.599Z,8.52
2022-09-06T22:08:50.735Z,11.15
2022-09-06T22:11:20.002Z,8.05
2022-09-06T22:13:47.846Z,8.73
2022-09-06T22:16:17.410Z,9.77
2022-09-06T22:18:45.189Z,9.10
2022-09-06T22:21:18.712Z,8.57
2022-09-06T22:26:19.555Z,9.07
2022-09-06T22:28:47.235Z,8.85
2022-09-06T22:31:14.204Z,9.15
2022-09-06T22:33:41.017Z,11.80
2022-09-06T22:36:08.047Z,10.27
2022-09-06T22:38:34.873Z,8.50
2022-09-06T22:41:02.119Z,9.55
2022-09-06T22:43:28.989Z,8.93
2022-09-06T22:46:03.193Z,8.48
2022-09-06T22:48:30.080Z,11.10
2022-09-06T22:50:57.138Z,8.43
2022-09-06T22:53:23.889Z,9.75
2022-09-06T22:55:50.678Z,10.05
2022-09-06T22:58:17.420Z,12.63
2022-09-06T23:00:44.226Z,13.82
2022-09-06T23:03:11.089Z,11.52
2022-09-06T23:05:37.894Z,10.48
2022-09-06T23:08:04.990Z,10.43
2022-09-06T23:10:32.151Z,13.02
2022-09-06T23:12:59.175Z,10.68
2022-09-06T23:15:26.012Z,14.40
2022-09-06T23:17:52.814Z,12.80
2022-09-06T23:20:19.679Z,11.88
2022-09-06T23:22:47.978Z,11.23
2022-09-06T23:25:14.885Z,11.45
2022-09-06T23:27:41.632Z,10.77
2022-09-06T23:30:09.477Z,11.45
2022-09-06T23:32:36.527Z,11.38
2022-09-06T23:35:04.003Z,10.32
2022-09-06T23:37:31.184Z,12.90
2022-09-06T23:39:57.997Z,10.35
2022-09-06T23:42:24.967Z,10.27
2022-09-06T23:44:57.564Z,10.13
2022-09-06T23:47:24.720Z,8.37
2022-09-06T23:49:51.715Z,8.32
2022-09-06T23:52:18.816Z,11.57
2022-09-06T23:54:45.552Z,11.10
2022-09-06T23:57:12.395Z,10.93
2022-09-06T23:59:39.234Z,11.63
